sensor_id;sensor_type;location;lat;lon;timestamp;P1;durP1;ratioP1;P2;durP2;ratioP2
72559;SDS011;62987;52.382;9.752;2024-02-26T00:00:02;5.72;;;2.70;;
72559;SDS011;62987;52.382;9.752;2024-02-26T00:02:36;7.10;;;2.90;;
72559;SDS011;62987;52.382;9.752;2024-02-26T00:05:05;6.20;;;2.88;;
72559;SDS011;62987;52.382;9.752;2024-02-26T00:07:34;4.70;;;2.53;;
72559;SDS011;62987;52.382;9.752;2024-02-26T00:10:05;7.03;;;2.47;;
72559;SDS011;62987;52.382;9.752;2024-02-26T00:12:34;6.60;;;2.85;;
72559;SDS011;62987;52.382;9.752;2024-02-26T00:15:02;5.43;;;2.70;;
72559;SDS011;62987;52.382;9.752;2024-02-26T00:17:31;6.25;;;3.13;;
72559;SDS011;62987;52.382;9.752;2024-02-26T00:20:00;5.40;;;2.70;;
72559;SDS011;62987;52.382;9.752;2024-02-26T00:22:31;7.57;;;2.95;;
72559;SDS011;62987;52.382;9.752;2024-02-26T00:24:59;5.72;;;2.80;;
72559;SDS011;62987;52.382;9.752;2024-02-26T00:27:29;5.20;;;2.33;;
72559;SDS011;62987;52.382;9.752;2024-02-26T00:29:57;6.13;;;2.42;;
72559;SDS011;62987;52.382;9.752;2024-02-26T00:32:26;6.47;;;2.70;;
72559;SDS011;62987;52.382;9.752;2024-02-26T00:34:55;6.43;;;2.72;;
72559;SDS011;62987;52.382;9.752;2024-02-26T00:37:23;5.57;;;2.30;;
72559;SDS011;62987;52.382;9.752;2024-02-26T00:39:51;4.30;;;2.22;;
72559;SDS011;62987;52.382;9.752;2024-02-26T00:42:21;5.40;;;2.50;;
72559;SDS011;62987;52.382;9.752;2024-02-26T00:44:51;4.65;;;2.40;;
72559;SDS011;62987;52.382;9.752;2024-02-26T00:47:19;7.13;;;2.75;;
72559;SDS011;62987;52.382;9.752;2024-02-26T00:49:48;6.15;;;2.42;;
72559;SDS011;62987;52.382;9.752;2024-02-26T00:52:16;4.25;;;2.50;;
72559;SDS011;62987;52.382;9.752;2024-02-26T00:54:44;6.05;;;2.45;;
72559;SDS011;62987;52.382;9.752;2024-02-26T00:57:13;7.30;;;3.13;;
72559;SDS011;62987;52.382;9.752;2024-02-26T00:59:41;5.88;;;2.88;;
72559;SDS011;62987;52.382;9.752;2024-02-26T01:02:11;8.27;;;3.00;;
72559;SDS011;62987;52.382;9.752;2024-02-26T01:04:39;5.97;;;3.13;;
72559;SDS011;62987;52.382;9.752;2024-02-26T01:07:08;8.27;;;3.30;;
72559;SDS011;62987;52.382;9.752;2024-02-26T01:09:37;6.72;;;2.97;;
72559;SDS011;62987;52.382;9.752;2024-02-26T01:12:05;6.75;;;3.30;;
72559;SDS011;62987;52.382;9.752;2024-02-26T01:14:34;5.20;;;2.90;;
72559;SDS011;62987;52.382;9.752;2024-02-26T01:17:02;5.78;;;3.35;;
72559;SDS011;62987;52.382;9.752;2024-02-26T01:19:32;7.13;;;3.13;;
72559;SDS011;62987;52.382;9.752;2024-02-26T01:22:01;6.22;;;3.42;;
72559;SDS011;62987;52.382;9.752;2024-02-26T01:24:29;5.60;;;2.63;;
72559;SDS011;62987;52.382;9.752;2024-02-26T01:26:57;6.05;;;2.88;;
72559;SDS011;62987;52.382;9.752;2024-02-26T01:29:26;7.25;;;2.97;;
72559;SDS011;62987;52.382;9.752;2024-02-26T01:31:54;5.70;;;3.00;;
72559;SDS011;62987;52.382;9.752;2024-02-26T01:34:22;7.80;;;3.05;;
72559;SDS011;62987;52.382;9.752;2024-02-26T01:36:52;8.75;;;3.13;;
72559;SDS011;62987;52.382;9.752;2024-02-26T01:39:22;7.40;;;2.65;;
72559;SDS011;62987;52.382;9.752;2024-02-26T01:41:51;7.75;;;2.78;;
72559;SDS011;62987;52.382;9.752;2024-02-26T01:44:19;6.40;;;2.65;;
72559;SDS011;62987;52.382;9.752;2024-02-26T01:46:47;6.80;;;2.85;;
72559;SDS011;62987;52.382;9.752;2024-02-26T01:49:16;7.90;;;2.70;;
72559;SDS011;62987;52.382;9.752;2024-02-26T01:51:45;5.72;;;2.65;;
72559;SDS011;62987;52.382;9.752;2024-02-26T01:54:15;5.38;;;2.22;;
72559;SDS011;62987;52.382;9.752;2024-02-26T01:56:44;4.60;;;2.50;;
72559;SDS011;62987;52.382;9.752;2024-02-26T01:59:13;5.00;;;2.22;;
72559;SDS011;62987;52.382;9.752;2024-02-26T02:01:42;5.53;;;2.30;;
72559;SDS011;62987;52.382;9.752;2024-02-26T02:04:13;4.93;;;2.60;;
72559;SDS011;62987;52.382;9.752;2024-02-26T02:06:42;6.47;;;2.65;;
72559;SDS011;62987;52.382;9.752;2024-02-26T02:09:13;5.45;;;2.63;;
72559;SDS011;62987;52.382;9.752;2024-02-26T02:11:43;4.95;;;2.03;;
72559;SDS011;62987;52.382;9.752;2024-02-26T02:14:13;4.60;;;2.50;;
72559;SDS011;62987;52.382;9.752;2024-02-26T02:16:41;4.07;;;2.33;;
72559;SDS011;62987;52.382;9.752;2024-02-26T02:19:10;6.97;;;2.38;;
72559;SDS011;62987;52.382;9.752;2024-02-26T02:21:40;6.40;;;2.67;;
72559;SDS011;62987;52.382;9.752;2024-02-26T02:24:08;7.70;;;3.10;;
72559;SDS011;62987;52.382;9.752;2024-02-26T02:26:36;5.20;;;2.55;;
72559;SDS011;62987;52.382;9.752;2024-02-26T02:29:05;5.15;;;2.42;;
72559;SDS011;62987;52.382;9.752;2024-02-26T02:31:36;4.65;;;2.30;;
72559;SDS011;62987;52.382;9.752;2024-02-26T02:34:04;3.47;;;1.77;;
72559;SDS011;62987;52.382;9.752;2024-02-26T02:36:33;5.25;;;2.17;;
72559;SDS011;62987;52.382;9.752;2024-02-26T02:39:03;4.70;;;2.15;;
72559;SDS011;62987;52.382;9.752;2024-02-26T02:41:32;4.70;;;2.10;;
72559;SDS011;62987;52.382;9.752;2024-02-26T02:44:00;3.95;;;1.92;;
72559;SDS011;62987;52.382;9.752;2024-02-26T02:46:29;5.15;;;2.30;;
72559;SDS011;62987;52.382;9.752;2024-02-26T02:49:00;5.18;;;2.40;;
72559;SDS011;62987;52.382;9.752;2024-02-26T02:51:28;5.88;;;2.70;;
72559;SDS011;62987;52.382;9.752;2024-02-26T02:53:58;4.60;;;1.92;;
72559;SDS011;62987;52.382;9.752;2024-02-26T02:56:28;4.95;;;2.25;;
72559;SDS011;62987;52.382;9.752;2024-02-26T02:58:57;5.07;;;2.25;;
72559;SDS011;62987;52.382;9.752;2024-02-26T03:01:25;4.32;;;2.25;;
72559;SDS011;62987;52.382;9.752;2024-02-26T03:03:53;5.72;;;2.40;;
72559;SDS011;62987;52.382;9.752;2024-02-26T03:06:22;6.35;;;2.72;;
72559;SDS011;62987;52.382;9.752;2024-02-26T03:08:53;3.88;;;1.63;;
72559;SDS011;62987;52.382;9.752;2024-02-26T03:11:22;4.82;;;1.95;;
72559;SDS011;62987;52.382;9.752;2024-02-26T03:13:54;5.65;;;2.53;;
72559;SDS011;62987;52.382;9.752;2024-02-26T03:16:22;4.80;;;2.35;;
72559;SDS011;62987;52.382;9.752;2024-02-26T03:18:51;4.25;;;2.17;;
72559;SDS011;62987;52.382;9.752;2024-02-26T03:21:20;5.47;;;2.92;;
72559;SDS011;62987;52.382;9.752;2024-02-26T03:23:49;4.65;;;1.77;;
72559;SDS011;62987;52.382;9.752;2024-02-26T03:26:17;3.80;;;1.90;;
72559;SDS011;62987;52.382;9.752;2024-02-26T03:28:46;5.18;;;2.13;;
72559;SDS011;62987;52.382;9.752;2024-02-26T03:31:15;4.30;;;2.05;;
72559;SDS011;62987;52.382;9.752;2024-02-26T03:33:44;4.15;;;1.88;;
72559;SDS011;62987;52.382;9.752;2024-02-26T03:36:12;5.07;;;2.05;;
72559;SDS011;62987;52.382;9.752;2024-02-26T03:38:43;6.80;;;2.05;;
72559;SDS011;62987;52.382;9.752;2024-02-26T03:41:11;6.18;;;2.28;;
72559;SDS011;62987;52.382;9.752;2024-02-26T03:43:40;6.05;;;1.98;;
72559;SDS011;62987;52.382;9.752;2024-02-26T03:46:08;4.70;;;1.92;;
72559;SDS011;62987;52.382;9.752;2024-02-26T03:48:39;4.38;;;1.77;;
72559;SDS011;62987;52.382;9.752;2024-02-26T03:51:08;3.67;;;1.88;;
72559;SDS011;62987;52.382;9.752;2024-02-26T03:53:37;4.68;;;1.63;;
72559;SDS011;62987;52.382;9.752;2024-02-26T03:56:06;6.10;;;1.83;;
72559;SDS011;62987;52.382;9.752;2024-02-26T03:58:35;3.55;;;1.83;;
72559;SDS011;62987;52.382;9.752;2024-02-26T04:01:03;4.47;;;1.83;;
72559;SDS011;62987;52.382;9.752;2024-02-26T04:03:32;5.00;;;1.95;;
72559;SDS011;62987;52.382;9.752;2024-02-26T04:06:03;5.10;;;2.25;;
72559;SDS011;62987;52.382;9.752;2024-02-26T04:08:32;3.67;;;1.60;;
72559;SDS011;62987;52.382;9.752;2024-02-26T04:11:00;4.55;;;2.03;;
72559;SDS011;62987;52.382;9.752;2024-02-26T04:13:29;4.28;;;1.92;;
72559;SDS011;62987;52.382;9.752;2024-02-26T04:15:58;3.92;;;1.95;;
72559;SDS011;62987;52.382;9.752;2024-02-26T04:18:28;3.97;;;1.92;;
72559;SDS011;62987;52.382;9.752;2024-02-26T04:20:56;4.57;;;1.67;;
72559;SDS011;62987;52.382;9.752;2024-02-26T04:23:26;5.47;;;2.03;;
72559;SDS011;62987;52.382;9.752;2024-02-26T04:25:54;5.35;;;1.92;;
72559;SDS011;62987;52.382;9.752;2024-02-26T04:28:23;4.82;;;1.88;;
72559;SDS011;62987;52.382;9.752;2024-02-26T04:30:53;3.70;;;1.95;;
72559;SDS011;62987;52.382;9.752;2024-02-26T04:33:21;5.35;;;1.98;;
72559;SDS011;62987;52.382;9.752;2024-02-26T04:35:49;4.80;;;2.10;;
72559;SDS011;62987;52.382;9.752;2024-02-26T04:38:18;4.13;;;1.88;;
72559;SDS011;62987;52.382;9.752;2024-02-26T04:40:48;4.57;;;2.00;;
72559;SDS011;62987;52.382;9.752;2024-02-26T04:43:16;4.45;;;2.13;;
72559;SDS011;62987;52.382;9.752;2024-02-26T04:45:46;5.63;;;2.17;;
72559;SDS011;62987;52.382;9.752;2024-02-26T04:48:14;5.15;;;2.60;;
72559;SDS011;62987;52.382;9.752;2024-02-26T04:50:43;4.50;;;1.80;;
72559;SDS011;62987;52.382;9.752;2024-02-26T04:53:11;5.57;;;2.28;;
72559;SDS011;62987;52.382;9.752;2024-02-26T04:55:39;4.82;;;2.05;;
72559;SDS011;62987;52.382;9.752;2024-02-26T04:58:09;4.90;;;1.90;;
72559;SDS011;62987;52.382;9.752;2024-02-26T05:00:38;4.45;;;2.45;;
72559;SDS011;62987;52.382;9.752;2024-02-26T05:03:06;4.68;;;1.90;;
72559;SDS011;62987;52.382;9.752;2024-02-26T05:05:40;4.03;;;2.10;;
72559;SDS011;62987;52.382;9.752;2024-02-26T05:08:08;5.80;;;1.90;;
72559;SDS011;62987;52.382;9.752;2024-02-26T05:10:37;5.50;;;2.80;;
72559;SDS011;62987;52.382;9.752;2024-02-26T05:13:09;4.32;;;2.13;;
72559;SDS011;62987;52.382;9.752;2024-02-26T05:15:38;4.38;;;2.45;;
72559;SDS011;62987;52.382;9.752;2024-02-26T05:18:06;6.05;;;2.17;;
72559;SDS011;62987;52.382;9.752;2024-02-26T05:20:35;4.70;;;2.20;;
72559;SDS011;62987;52.382;9.752;2024-02-26T05:23:04;4.70;;;2.03;;
72559;SDS011;62987;52.382;9.752;2024-02-26T05:25:33;6.25;;;2.45;;
72559;SDS011;62987;52.382;9.752;2024-02-26T05:28:01;6.72;;;2.95;;
72559;SDS011;62987;52.382;9.752;2024-02-26T05:30:31;5.32;;;2.22;;
72559;SDS011;62987;52.382;9.752;2024-02-26T05:33:00;4.65;;;2.05;;
72559;SDS011;62987;52.382;9.752;2024-02-26T05:35:28;6.22;;;2.95;;
72559;SDS011;62987;52.382;9.752;2024-02-26T05:37:57;5.28;;;2.30;;
72559;SDS011;62987;52.382;9.752;2024-02-26T05:40:25;4.05;;;2.20;;
72559;SDS011;62987;52.382;9.752;2024-02-26T05:42:54;4.88;;;2.38;;
72559;SDS011;62987;52.382;9.752;2024-02-26T05:45:22;7.05;;;2.75;;
72559;SDS011;62987;52.382;9.752;2024-02-26T05:47:52;7.07;;;2.88;;
72559;SDS011;62987;52.382;9.752;2024-02-26T05:50:23;5.55;;;2.65;;
72559;SDS011;62987;52.382;9.752;2024-02-26T05:52:52;5.63;;;2.63;;
72559;SDS011;62987;52.382;9.752;2024-02-26T05:55:20;4.32;;;2.08;;
72559;SDS011;62987;52.382;9.752;2024-02-26T05:57:49;4.82;;;2.30;;
72559;SDS011;62987;52.382;9.752;2024-02-26T06:00:18;6.68;;;2.58;;
72559;SDS011;62987;52.382;9.752;2024-02-26T06:02:46;5.82;;;2.78;;
72559;SDS011;62987;52.382;9.752;2024-02-26T06:05:16;5.53;;;2.13;;
72559;SDS011;62987;52.382;9.752;2024-02-26T06:07:45;6.78;;;2.65;;
72559;SDS011;62987;52.382;9.752;2024-02-26T06:10:13;4.07;;;2.13;;
72559;SDS011;62987;52.382;9.752;2024-02-26T06:12:41;4.45;;;2.20;;
72559;SDS011;62987;52.382;9.752;2024-02-26T06:15:10;6.50;;;2.53;;
72559;SDS011;62987;52.382;9.752;2024-02-26T06:17:39;5.45;;;2.45;;
72559;SDS011;62987;52.382;9.752;2024-02-26T06:20:07;4.97;;;2.33;;
72559;SDS011;62987;52.382;9.752;2024-02-26T06:22:41;4.68;;;2.50;;
72559;SDS011;62987;52.382;9.752;2024-02-26T06:25:09;5.60;;;2.47;;
72559;SDS011;62987;52.382;9.752;2024-02-26T06:27:38;4.50;;;2.25;;
72559;SDS011;62987;52.382;9.752;2024-02-26T06:30:06;5.07;;;2.17;;
72559;SDS011;62987;52.382;9.752;2024-02-26T06:35:58;6.30;;;2.80;;
72559;SDS011;62987;52.382;9.752;2024-02-26T06:38:26;5.70;;;2.53;;
72559;SDS011;62987;52.382;9.752;2024-02-26T06:40:55;7.05;;;3.15;;
72559;SDS011;62987;52.382;9.752;2024-02-26T06:43:23;5.90;;;2.50;;
72559;SDS011;62987;52.382;9.752;2024-02-26T06:45:52;4.80;;;2.30;;
72559;SDS011;62987;52.382;9.752;2024-02-26T06:48:20;6.70;;;2.80;;
72559;SDS011;62987;52.382;9.752;2024-02-26T06:51:52;6.00;;;3.20;;
72559;SDS011;62987;52.382;9.752;2024-02-26T06:54:20;5.82;;;2.97;;
72559;SDS011;62987;52.382;9.752;2024-02-26T06:56:49;4.82;;;2.70;;
72559;SDS011;62987;52.382;9.752;2024-02-26T06:59:17;6.00;;;2.53;;
72559;SDS011;62987;52.382;9.752;2024-02-26T07:01:47;5.75;;;2.72;;
72559;SDS011;62987;52.382;9.752;2024-02-26T07:04:15;5.22;;;2.35;;
72559;SDS011;62987;52.382;9.752;2024-02-26T07:06:43;4.93;;;2.22;;
72559;SDS011;62987;52.382;9.752;2024-02-26T07:09:23;5.43;;;2.88;;
72559;SDS011;62987;52.382;9.752;2024-02-26T07:11:52;6.22;;;2.90;;
72559;SDS011;62987;52.382;9.752;2024-02-26T07:14:24;5.25;;;2.80;;
72559;SDS011;62987;52.382;9.752;2024-02-26T07:16:52;5.63;;;2.65;;
72559;SDS011;62987;52.382;9.752;2024-02-26T07:19:20;6.18;;;2.53;;
72559;SDS011;62987;52.382;9.752;2024-02-26T07:21:49;6.82;;;2.65;;
72559;SDS011;62987;52.382;9.752;2024-02-26T07:24:17;6.22;;;3.38;;
72559;SDS011;62987;52.382;9.752;2024-02-26T07:26:47;7.40;;;2.75;;
72559;SDS011;62987;52.382;9.752;2024-02-26T07:34:37;5.50;;;2.92;;
72559;SDS011;62987;52.382;9.752;2024-02-26T07:37:08;5.80;;;3.05;;
72559;SDS011;62987;52.382;9.752;2024-02-26T07:39:37;5.40;;;2.88;;
72559;SDS011;62987;52.382;9.752;2024-02-26T07:42:05;6.30;;;3.03;;
72559;SDS011;62987;52.382;9.752;2024-02-26T07:44:37;9.77;;;3.05;;
72559;SDS011;62987;52.382;9.752;2024-02-26T07:47:11;6.95;;;2.65;;
72559;SDS011;62987;52.382;9.752;2024-02-26T07:49:39;5.70;;;2.97;;
72559;SDS011;62987;52.382;9.752;2024-02-26T07:52:08;8.73;;;3.38;;
72559;SDS011;62987;52.382;9.752;2024-02-26T07:54:40;7.20;;;3.00;;
72559;SDS011;62987;52.382;9.752;2024-02-26T07:57:08;6.38;;;3.15;;
72559;SDS011;62987;52.382;9.752;2024-02-26T07:59:37;6.28;;;2.97;;
72559;SDS011;62987;52.382;9.752;2024-02-26T08:02:05;7.40;;;3.20;;
72559;SDS011;62987;52.382;9.752;2024-02-26T08:04:36;5.25;;;2.78;;
72559;SDS011;62987;52.382;9.752;2024-02-26T08:07:05;5.80;;;2.70;;
72559;SDS011;62987;52.382;9.752;2024-02-26T08:09:34;5.28;;;2.92;;
72559;SDS011;62987;52.382;9.752;2024-02-26T08:12:03;6.22;;;3.22;;
72559;SDS011;62987;52.382;9.752;2024-02-26T08:14:32;6.22;;;3.47;;
72559;SDS011;62987;52.382;9.752;2024-02-26T08:17:04;5.20;;;2.80;;
72559;SDS011;62987;52.382;9.752;2024-02-26T08:19:32;6.32;;;2.70;;
72559;SDS011;62987;52.382;9.752;2024-02-26T08:22:04;6.00;;;2.92;;
72559;SDS011;62987;52.382;9.752;2024-02-26T08:24:32;5.72;;;2.85;;
72559;SDS011;62987;52.382;9.752;2024-02-26T08:27:01;4.57;;;2.55;;
72559;SDS011;62987;52.382;9.752;2024-02-26T08:29:29;5.13;;;2.63;;
72559;SDS011;62987;52.382;9.752;2024-02-26T08:31:57;5.47;;;2.42;;
72559;SDS011;62987;52.382;9.752;2024-02-26T08:34:26;5.65;;;2.65;;
72559;SDS011;62987;52.382;9.752;2024-02-26T08:36:55;4.03;;;1.75;;
72559;SDS011;62987;52.382;9.752;2024-02-26T08:39:24;4.72;;;1.92;;
72559;SDS011;62987;52.382;9.752;2024-02-26T08:41:53;4.65;;;2.10;;
72559;SDS011;62987;52.382;9.752;2024-02-26T08:44:22;4.18;;;2.08;;
72559;SDS011;62987;52.382;9.752;2024-02-26T08:46:50;4.78;;;2.00;;
72559;SDS011;62987;52.382;9.752;2024-02-26T08:49:19;4.28;;;2.00;;
72559;SDS011;62987;52.382;9.752;2024-02-26T08:51:50;5.80;;;1.83;;
72559;SDS011;62987;52.382;9.752;2024-02-26T08:54:18;5.45;;;2.13;;
72559;SDS011;62987;52.382;9.752;2024-02-26T08:56:48;3.88;;;1.98;;
72559;SDS011;62987;52.382;9.752;2024-02-26T08:59:16;5.90;;;1.85;;
72559;SDS011;62987;52.382;9.752;2024-02-26T09:01:49;4.97;;;2.65;;
72559;SDS011;62987;52.382;9.752;2024-02-26T09:04:17;4.72;;;1.73;;
72559;SDS011;62987;52.382;9.752;2024-02-26T09:06:46;4.45;;;1.92;;
72559;SDS011;62987;52.382;9.752;2024-02-26T09:09:15;4.00;;;1.77;;
72559;SDS011;62987;52.382;9.752;2024-02-26T09:11:44;3.85;;;1.73;;
72559;SDS011;62987;52.382;9.752;2024-02-26T09:14:14;4.30;;;1.48;;
72559;SDS011;62987;52.382;9.752;2024-02-26T09:16:43;4.93;;;1.67;;
72559;SDS011;62987;52.382;9.752;2024-02-26T09:19:11;2.53;;;1.42;;
72559;SDS011;62987;52.382;9.752;2024-02-26T09:21:42;6.72;;;1.70;;
72559;SDS011;62987;52.382;9.752;2024-02-26T09:24:11;4.55;;;1.65;;
72559;SDS011;62987;52.382;9.752;2024-02-26T09:26:40;8.45;;;1.70;;
72559;SDS011;62987;52.382;9.752;2024-02-26T09:29:08;4.07;;;1.70;;
72559;SDS011;62987;52.382;9.752;2024-02-26T09:31:38;3.10;;;1.50;;
72559;SDS011;62987;52.382;9.752;2024-02-26T09:34:08;3.92;;;1.73;;
72559;SDS011;62987;52.382;9.752;2024-02-26T09:36:36;4.57;;;1.73;;
72559;SDS011;62987;52.382;9.752;2024-02-26T09:39:05;3.03;;;1.58;;
72559;SDS011;62987;52.382;9.752;2024-02-26T09:41:34;6.47;;;1.95;;
72559;SDS011;62987;52.382;9.752;2024-02-26T09:44:02;5.45;;;2.35;;
72559;SDS011;62987;52.382;9.752;2024-02-26T09:46:32;3.55;;;1.63;;
72559;SDS011;62987;52.382;9.752;2024-02-26T09:49:03;4.07;;;1.63;;
72559;SDS011;62987;52.382;9.752;2024-02-26T09:51:33;2.72;;;1.40;;
72559;SDS011;62987;52.382;9.752;2024-02-26T09:54:01;4.85;;;1.88;;
72559;SDS011;62987;52.382;9.752;2024-02-26T09:56:33;4.25;;;1.60;;
72559;SDS011;62987;52.382;9.752;2024-02-26T09:59:10;3.80;;;1.55;;
72559;SDS011;62987;52.382;9.752;2024-02-26T10:01:42;3.90;;;1.33;;
72559;SDS011;62987;52.382;9.752;2024-02-26T10:04:14;5.80;;;1.50;;
72559;SDS011;62987;52.382;9.752;2024-02-26T10:06:43;3.20;;;1.58;;
72559;SDS011;62987;52.382;9.752;2024-02-26T10:09:13;4.65;;;1.90;;
72559;SDS011;62987;52.382;9.752;2024-02-26T10:11:43;3.47;;;1.65;;
72559;SDS011;62987;52.382;9.752;2024-02-26T10:14:12;5.10;;;1.77;;
72559;SDS011;62987;52.382;9.752;2024-02-26T10:16:40;5.22;;;1.85;;
72559;SDS011;62987;52.382;9.752;2024-02-26T10:19:09;5.40;;;1.85;;
72559;SDS011;62987;52.382;9.752;2024-02-26T10:21:56;4.70;;;1.50;;
72559;SDS011;62987;52.382;9.752;2024-02-26T10:24:25;3.63;;;1.52;;
72559;SDS011;62987;52.382;9.752;2024-02-26T10:26:54;3.58;;;1.60;;
72559;SDS011;62987;52.382;9.752;2024-02-26T10:29:23;3.70;;;2.05;;
72559;SDS011;62987;52.382;9.752;2024-02-26T10:31:53;3.28;;;1.50;;
72559;SDS011;62987;52.382;9.752;2024-02-26T10:34:22;3.17;;;1.38;;
72559;SDS011;62987;52.382;9.752;2024-02-26T10:36:52;4.43;;;1.70;;
72559;SDS011;62987;52.382;9.752;2024-02-26T10:39:22;4.18;;;1.27;;
72559;SDS011;62987;52.382;9.752;2024-02-26T10:41:50;3.80;;;1.58;;
72559;SDS011;62987;52.382;9.752;2024-02-26T10:44:19;3.10;;;1.52;;
72559;SDS011;62987;52.382;9.752;2024-02-26T10:46:48;4.00;;;1.65;;
72559;SDS011;62987;52.382;9.752;2024-02-26T10:49:18;3.60;;;1.77;;
72559;SDS011;62987;52.382;9.752;2024-02-26T10:51:52;3.85;;;1.70;;
72559;SDS011;62987;52.382;9.752;2024-02-26T10:54:23;4.80;;;1.90;;
72559;SDS011;62987;52.382;9.752;2024-02-26T10:56:55;3.13;;;1.52;;
72559;SDS011;62987;52.382;9.752;2024-02-26T10:59:25;5.00;;;1.60;;
72559;SDS011;62987;52.382;9.752;2024-02-26T11:01:54;3.80;;;1.52;;
72559;SDS011;62987;52.382;9.752;2024-02-26T11:04:24;4.85;;;2.03;;
72559;SDS011;62987;52.382;9.752;2024-02-26T11:06:56;5.63;;;2.00;;
72559;SDS011;62987;52.382;9.752;2024-02-26T11:09:25;4.20;;;1.88;;
72559;SDS011;62987;52.382;9.752;2024-02-26T11:11:55;3.53;;;1.70;;
72559;SDS011;62987;52.382;9.752;2024-02-26T11:14:26;5.80;;;2.30;;
72559;SDS011;62987;52.382;9.752;2024-02-26T11:16:57;3.85;;;1.73;;
72559;SDS011;62987;52.382;9.752;2024-02-26T11:19:27;5.05;;;1.77;;
72559;SDS011;62987;52.382;9.752;2024-02-26T11:22:01;5.15;;;1.95;;
72559;SDS011;62987;52.382;9.752;2024-02-26T11:24:47;3.50;;;1.60;;
72559;SDS011;62987;52.382;9.752;2024-02-26T11:27:15;3.42;;;1.92;;
72559;SDS011;62987;52.382;9.752;2024-02-26T11:29:47;5.88;;;1.95;;
72559;SDS011;62987;52.382;9.752;2024-02-26T11:32:19;4.88;;;1.85;;
72559;SDS011;62987;52.382;9.752;2024-02-26T11:34:48;3.72;;;1.75;;
72559;SDS011;62987;52.382;9.752;2024-02-26T11:37:19;3.50;;;1.48;;
72559;SDS011;62987;52.382;9.752;2024-02-26T11:39:48;4.75;;;2.17;;
72559;SDS011;62987;52.382;9.752;2024-02-26T11:42:22;4.55;;;2.10;;
72559;SDS011;62987;52.382;9.752;2024-02-26T11:44:52;6.40;;;1.95;;
72559;SDS011;62987;52.382;9.752;2024-02-26T11:47:22;4.20;;;1.75;;
72559;SDS011;62987;52.382;9.752;2024-02-26T11:49:51;4.68;;;2.10;;
72559;SDS011;62987;52.382;9.752;2024-02-26T11:52:21;3.97;;;2.00;;
72559;SDS011;62987;52.382;9.752;2024-02-26T11:54:50;3.97;;;2.03;;
72559;SDS011;62987;52.382;9.752;2024-02-26T11:57:24;5.32;;;2.13;;
72559;SDS011;62987;52.382;9.752;2024-02-26T11:59:56;5.97;;;1.90;;
72559;SDS011;62987;52.382;9.752;2024-02-26T12:02:44;4.35;;;1.92;;
72559;SDS011;62987;52.382;9.752;2024-02-26T12:05:14;3.50;;;1.50;;
72559;SDS011;62987;52.382;9.752;2024-02-26T12:07:46;5.00;;;2.13;;
72559;SDS011;62987;52.382;9.752;2024-02-26T12:10:17;3.30;;;1.77;;
72559;SDS011;62987;52.382;9.752;2024-02-26T12:12:53;8.10;;;2.10;;
72559;SDS011;62987;52.382;9.752;2024-02-26T12:15:26;3.90;;;1.80;;
72559;SDS011;62987;52.382;9.752;2024-02-26T12:18:00;5.43;;;1.85;;
72559;SDS011;62987;52.382;9.752;2024-02-26T12:20:30;5.57;;;1.95;;
72559;SDS011;62987;52.382;9.752;2024-02-26T12:23:00;4.75;;;2.08;;
72559;SDS011;62987;52.382;9.752;2024-02-26T12:25:30;4.22;;;1.90;;
72559;SDS011;62987;52.382;9.752;2024-02-26T12:27:59;4.78;;;2.22;;
72559;SDS011;62987;52.382;9.752;2024-02-26T12:30:28;4.28;;;1.80;;
72559;SDS011;62987;52.382;9.752;2024-02-26T12:33:00;4.43;;;2.10;;
72559;SDS011;62987;52.382;9.752;2024-02-26T12:35:29;4.97;;;1.92;;
72559;SDS011;62987;52.382;9.752;2024-02-26T12:38:00;5.10;;;2.30;;
72559;SDS011;62987;52.382;9.752;2024-02-26T12:40:31;4.43;;;1.90;;
72559;SDS011;62987;52.382;9.752;2024-02-26T12:43:00;7.63;;;2.75;;
72559;SDS011;62987;52.382;9.752;2024-02-26T12:45:29;5.35;;;2.58;;
72559;SDS011;62987;52.382;9.752;2024-02-26T12:47:59;4.95;;;2.22;;
72559;SDS011;62987;52.382;9.752;2024-02-26T12:50:27;4.93;;;2.10;;
72559;SDS011;62987;52.382;9.752;2024-02-26T12:52:56;3.83;;;1.98;;
72559;SDS011;62987;52.382;9.752;2024-02-26T12:55:26;4.07;;;2.00;;
72559;SDS011;62987;52.382;9.752;2024-02-26T12:57:55;3.78;;;2.00;;
72559;SDS011;62987;52.382;9.752;2024-02-26T13:00:24;5.32;;;2.20;;
72559;SDS011;62987;52.382;9.752;2024-02-26T13:02:55;4.60;;;1.88;;
72559;SDS011;62987;52.382;9.752;2024-02-26T13:05:25;4.45;;;2.30;;
72559;SDS011;62987;52.382;9.752;2024-02-26T13:07:54;4.90;;;2.20;;
72559;SDS011;62987;52.382;9.752;2024-02-26T13:10:23;4.90;;;2.28;;
72559;SDS011;62987;52.382;9.752;2024-02-26T13:12:53;4.75;;;2.33;;
72559;SDS011;62987;52.382;9.752;2024-02-26T13:15:22;3.35;;;1.60;;
72559;SDS011;62987;52.382;9.752;2024-02-26T13:17:50;3.92;;;2.25;;
72559;SDS011;62987;52.382;9.752;2024-02-26T13:20:27;6.38;;;2.25;;
72559;SDS011;62987;52.382;9.752;2024-02-26T13:23:01;3.95;;;2.17;;
72559;SDS011;62987;52.382;9.752;2024-02-26T13:25:30;5.85;;;2.60;;
72559;SDS011;62987;52.382;9.752;2024-02-26T13:28:09;4.57;;;2.25;;
72559;SDS011;62987;52.382;9.752;2024-02-26T13:30:49;4.35;;;1.90;;
72559;SDS011;62987;52.382;9.752;2024-02-26T13:33:21;4.97;;;2.03;;
72559;SDS011;62987;52.382;9.752;2024-02-26T13:35:51;5.20;;;2.25;;
72559;SDS011;62987;52.382;9.752;2024-02-26T13:38:20;6.00;;;2.60;;
72559;SDS011;62987;52.382;9.752;2024-02-26T13:40:49;6.57;;;2.75;;
72559;SDS011;62987;52.382;9.752;2024-02-26T13:43:19;5.82;;;2.03;;
72559;SDS011;62987;52.382;9.752;2024-02-26T13:45:48;4.32;;;2.10;;
72559;SDS011;62987;52.382;9.752;2024-02-26T13:48:17;5.05;;;1.75;;
72559;SDS011;62987;52.382;9.752;2024-02-26T13:50:46;4.35;;;2.10;;
72559;SDS011;62987;52.382;9.752;2024-02-26T13:53:14;5.45;;;1.80;;
72559;SDS011;62987;52.382;9.752;2024-02-26T13:55:43;4.82;;;2.00;;
72559;SDS011;62987;52.382;9.752;2024-02-26T13:58:12;5.03;;;2.22;;
72559;SDS011;62987;52.382;9.752;2024-02-26T14:00:43;4.53;;;1.70;;
72559;SDS011;62987;52.382;9.752;2024-02-26T14:03:12;3.42;;;1.70;;
72559;SDS011;62987;52.382;9.752;2024-02-26T14:05:40;3.83;;;1.80;;
72559;SDS011;62987;52.382;9.752;2024-02-26T14:08:13;4.93;;;2.08;;
72559;SDS011;62987;52.382;9.752;2024-02-26T14:10:43;4.18;;;1.67;;
72559;SDS011;62987;52.382;9.752;2024-02-26T14:13:12;4.28;;;1.70;;
72559;SDS011;62987;52.382;9.752;2024-02-26T14:15:40;2.90;;;1.30;;
72559;SDS011;62987;52.382;9.752;2024-02-26T14:18:10;3.65;;;1.77;;
72559;SDS011;62987;52.382;9.752;2024-02-26T14:20:39;3.10;;;1.50;;
72559;SDS011;62987;52.382;9.752;2024-02-26T14:23:07;5.55;;;2.17;;
72559;SDS011;62987;52.382;9.752;2024-02-26T14:25:36;4.07;;;1.90;;
72559;SDS011;62987;52.382;9.752;2024-02-26T14:28:05;5.35;;;2.28;;
72559;SDS011;62987;52.382;9.752;2024-02-26T14:30:40;6.57;;;2.00;;
72559;SDS011;62987;52.382;9.752;2024-02-26T14:33:10;6.53;;;1.67;;
72559;SDS011;62987;52.382;9.752;2024-02-26T14:35:38;3.65;;;1.75;;
72559;SDS011;62987;52.382;9.752;2024-02-26T14:38:07;4.20;;;1.83;;
72559;SDS011;62987;52.382;9.752;2024-02-26T14:40:35;3.45;;;1.85;;
72559;SDS011;62987;52.382;9.752;2024-02-26T14:43:04;4.78;;;1.85;;
72559;SDS011;62987;52.382;9.752;2024-02-26T14:45:32;3.78;;;2.00;;
72559;SDS011;62987;52.382;9.752;2024-02-26T14:48:01;4.22;;;1.60;;
72559;SDS011;62987;52.382;9.752;2024-02-26T14:50:32;2.78;;;1.30;;
72559;SDS011;62987;52.382;9.752;2024-02-26T14:53:00;4.55;;;1.52;;
72559;SDS011;62987;52.382;9.752;2024-02-26T14:55:31;4.35;;;1.67;;
72559;SDS011;62987;52.382;9.752;2024-02-26T14:58:02;4.32;;;1.88;;
72559;SDS011;62987;52.382;9.752;2024-02-26T15:00:31;4.43;;;2.08;;
72559;SDS011;62987;52.382;9.752;2024-02-26T15:03:02;4.47;;;2.22;;
72559;SDS011;62987;52.382;9.752;2024-02-26T15:05:33;4.72;;;2.25;;
72559;SDS011;62987;52.382;9.752;2024-02-26T15:08:01;4.63;;;1.75;;
72559;SDS011;62987;52.382;9.752;2024-02-26T15:10:30;4.45;;;1.67;;